createdAt,value
2019-04-03T14:20:06.233Z,2.15
2019-04-03T20:13:13.626Z,10.68
2019-04-03T20:15:45.435Z,9.13
2019-04-03T20:18:16.889Z,9.55
2019-04-03T20:20:48.231Z,8.60
2019-04-03T20:23:19.891Z,9.10
2019-04-03T20:25:51.332Z,6.35
2019-04-03T20:28:24.188Z,8.38
2019-04-03T20:30:55.453Z,9.95
2019-04-03T20:33:27.428Z,19.07
2019-04-03T20:35:58.979Z,20.85
2019-04-03T20:38:30.902Z,23.75
2019-04-03T20:41:03.838Z,25.43
2019-04-03T20:43:35.486Z,25.17
2019-04-03T20:46:07.236Z,27.17
2019-04-03T20:48:38.789Z,22.77
2019-04-03T20:51:10.659Z,22.67
2019-04-03T20:53:42.418Z,29.18
2019-04-03T20:56:13.984Z,30.27
2019-04-03T20:58:55.272Z,27.95
2019-04-03T21:01:18.819Z,26.52
2019-04-03T21:03:50.409Z,25.37
2019-04-03T21:06:22.418Z,24.18
2019-04-03T21:08:53.873Z,24.60
2019-04-03T21:11:25.446Z,24.37
2019-04-03T21:13:57.636Z,23.45
2019-04-03T21:16:33.479Z,21.80
2019-04-03T21:19:02.540Z,19.07
2019-04-03T21:21:34.236Z,17.80
2019-04-03T21:24:05.726Z,16.35
2019-04-03T21:26:38.285Z,16.57
2019-04-03T21:29:11.817Z,14.78
2019-04-03T21:31:43.865Z,13.40
2019-04-03T21:34:15.861Z,12.80
2019-04-03T21:36:47.372Z,12.13
2019-04-03T21:39:19.120Z,11.65
2019-04-03T21:41:50.509Z,11.08
2019-04-03T21:44:22.066Z,10.18
2019-04-03T21:46:53.497Z,10.18
2019-04-03T21:49:25.697Z,8.98
2019-04-03T21:51:57.203Z,7.23
2019-04-03T21:54:29.811Z,8.95
2019-04-03T21:57:01.072Z,6.20
2019-04-03T21:59:32.634Z,8.90
2019-04-03T22:02:04.033Z,9.60
2019-04-03T22:37:28.255Z,8.30
2019-04-03T22:39:59.829Z,8.40
2019-04-03T22:42:31.609Z,8.53
2019-04-03T22:45:02.792Z,8.23
2019-04-03T22:47:34.366Z,7.72
2019-04-03T22:50:06.388Z,7.83
2019-04-03T22:52:39.653Z,8.08
2019-04-03T22:55:10.785Z,7.92
2019-04-03T22:57:42.468Z,7.42
2019-04-03T23:00:13.810Z,7.70
2019-04-03T23:02:45.421Z,8.08
2019-04-03T23:05:17.672Z,6.77
2019-04-03T23:07:51.670Z,7.37
2019-04-03T23:10:22.810Z,7.85
2019-04-03T23:12:54.194Z,7.28
2019-04-03T23:15:25.716Z,7.08
2019-04-03T23:17:57.305Z,7.60
2019-04-03T23:20:28.750Z,7.35
2019-04-03T23:23:00.098Z,7.53
2019-04-03T23:25:31.547Z,7.65
2019-04-03T23:28:03.607Z,7.50
2019-04-03T23:30:36.203Z,7.60
2019-04-03T23:33:07.415Z,6.30
2019-04-03T23:35:39.400Z,8.05
2019-04-03T23:38:10.889Z,8.13
2019-04-03T23:40:42.629Z,8.28
2019-04-03T23:43:14.011Z,8.03
2019-04-03T23:45:45.618Z,10.03
2019-04-03T23:48:18.483Z,9.08
2019-04-03T23:50:52.424Z,9.03
2019-04-03T23:53:23.342Z,9.68
2019-04-03T23:55:54.789Z,9.93
2019-04-03T23:58:26.140Z,8.63
